sensor_id;sensor_type;location;lat;lon;timestamp;pressure;altitude;pressure_sealevel;temperature;humidity
6514;BME280;3290;47.716;9.070;2023-03-25T00:00:47;96598.66;;;10.64;98.50
6514;BME280;3290;47.716;9.070;2023-03-25T00:03:12;96568.97;;;10.70;99.68
6514;BME280;3290;47.716;9.070;2023-03-25T00:05:39;96583.72;;;10.53;93.11
6514;BME280;3290;47.716;9.070;2023-03-25T00:08:05;96571.34;;;10.60;94.61
6514;BME280;3290;47.716;9.070;2023-03-25T00:10:30;96570.19;;;10.56;96.00
6514;BME280;3290;47.716;9.070;2023-03-25T00:12:59;96572.38;;;10.41;96.58
6514;BME280;3290;47.716;9.070;2023-03-25T00:15:29;96569.78;;;10.41;97.57
6514;BME280;3290;47.716;9.070;2023-03-25T00:17:58;96566.28;;;10.47;98.26
6514;BME280;3290;47.716;9.070;2023-03-25T00:20:24;96558.59;;;10.34;96.60
6514;BME280;3290;47.716;9.070;2023-03-25T00:22:50;96557.75;;;10.22;97.90
6514;BME280;3290;47.716;9.070;2023-03-25T00:25:18;96557.66;;;10.29;97.43
6514;BME280;3290;47.716;9.070;2023-03-25T00:27:48;96549.81;;;10.11;97.22
6514;BME280;3290;47.716;9.070;2023-03-25T00:30:16;96545.50;;;10.34;96.48
6514;BME280;3290;47.716;9.070;2023-03-25T00:32:42;96547.84;;;10.24;95.83
6514;BME280;3290;47.716;9.070;2023-03-25T00:35:14;96550.97;;;10.15;96.15
6514;BME280;3290;47.716;9.070;2023-03-25T00:37:41;96547.28;;;10.22;96.08
6514;BME280;3290;47.716;9.070;2023-03-25T00:40:08;96533.38;;;10.22;96.24
6514;BME280;3290;47.716;9.070;2023-03-25T00:42:33;96546.59;;;10.27;95.47
6514;BME280;3290;47.716;9.070;2023-03-25T00:44:59;96547.88;;;10.36;92.10
6514;BME280;3290;47.716;9.070;2023-03-25T00:47:24;96560.91;;;10.42;93.28
6514;BME280;3290;47.716;9.070;2023-03-25T00:49:51;96568.19;;;10.40;92.16
6514;BME280;3290;47.716;9.070;2023-03-25T00:52:16;96570.72;;;10.46;91.83
6514;BME280;3290;47.716;9.070;2023-03-25T00:54:42;96578.03;;;10.56;91.41
6514;BME280;3290;47.716;9.070;2023-03-25T00:57:08;96579.41;;;10.58;92.35
6514;BME280;3290;47.716;9.070;2023-03-25T00:59:33;96578.44;;;10.71;92.87
6514;BME280;3290;47.716;9.070;2023-03-25T01:01:59;96580.34;;;10.64;92.63
6514;BME280;3290;47.716;9.070;2023-03-25T01:04:24;96582.78;;;10.77;91.10
6514;BME280;3290;47.716;9.070;2023-03-25T01:06:49;96577.28;;;10.67;94.93
6514;BME280;3290;47.716;9.070;2023-03-25T01:09:18;96583.66;;;10.71;95.27
6514;BME280;3290;47.716;9.070;2023-03-25T01:11:45;96575.69;;;10.66;95.96
6514;BME280;3290;47.716;9.070;2023-03-25T01:14:14;96568.78;;;10.53;96.92
6514;BME280;3290;47.716;9.070;2023-03-25T01:16:41;96577.91;;;10.51;97.83
6514;BME280;3290;47.716;9.070;2023-03-25T01:19:07;96583.56;;;10.48;99.49
6514;BME280;3290;47.716;9.070;2023-03-25T01:21:32;96573.72;;;10.50;100.00
6514;BME280;3290;47.716;9.070;2023-03-25T01:24:00;96573.34;;;10.29;100.00
6514;BME280;3290;47.716;9.070;2023-03-25T01:26:25;96560.00;;;10.19;100.00
6514;BME280;3290;47.716;9.070;2023-03-25T01:28:51;96560.94;;;10.24;100.00
6514;BME280;3290;47.716;9.070;2023-03-25T01:31:18;96561.03;;;10.18;99.64
6514;BME280;3290;47.716;9.070;2023-03-25T01:33:43;96557.59;;;10.17;100.00
6514;BME280;3290;47.716;9.070;2023-03-25T01:36:09;96560.50;;;10.27;99.77
6514;BME280;3290;47.716;9.070;2023-03-25T01:38:37;96557.47;;;10.12;99.75
6514;BME280;3290;47.716;9.070;2023-03-25T01:41:03;96557.28;;;9.96;99.69
6514;BME280;3290;47.716;9.070;2023-03-25T01:43:30;96545.41;;;10.11;98.69
6514;BME280;3290;47.716;9.070;2023-03-25T01:45:56;96541.59;;;9.90;98.44
6514;BME280;3290;47.716;9.070;2023-03-25T01:50:59;96538.75;;;9.98;98.18
6514;BME280;3290;47.716;9.070;2023-03-25T01:53:29;96533.34;;;10.10;98.51
6514;BME280;3290;47.716;9.070;2023-03-25T01:56:01;96538.59;;;9.93;98.28
6514;BME280;3290;47.716;9.070;2023-03-25T01:58:27;96528.50;;;9.96;97.08
6514;BME280;3290;47.716;9.070;2023-03-25T02:00:53;96536.25;;;10.02;98.39
6514;BME280;3290;47.716;9.070;2023-03-25T02:03:23;96542.41;;;9.90;99.33
6514;BME280;3290;47.716;9.070;2023-03-25T02:06:00;96527.09;;;9.94;97.73
6514;BME280;3290;47.716;9.070;2023-03-25T02:08:32;96532.97;;;9.89;97.98
6514;BME280;3290;47.716;9.070;2023-03-25T02:11:02;96540.59;;;9.91;96.74
6514;BME280;3290;47.716;9.070;2023-03-25T02:13:27;96542.78;;;9.94;97.67
6514;BME280;3290;47.716;9.070;2023-03-25T02:18:42;96546.28;;;10.05;96.90
6514;BME280;3290;47.716;9.070;2023-03-25T02:30:25;96539.22;;;9.88;100.00
6514;BME280;3290;47.716;9.070;2023-03-25T02:41:16;96526.09;;;9.95;97.90
6514;BME280;3290;47.716;9.070;2023-03-25T02:46:22;96546.34;;;9.99;99.11
6514;BME280;3290;47.716;9.070;2023-03-25T02:49:04;96545.91;;;10.02;98.88
6514;BME280;3290;47.716;9.070;2023-03-25T02:51:39;96540.09;;;10.00;98.16
6514;BME280;3290;47.716;9.070;2023-03-25T02:54:10;96534.31;;;9.98;98.84
6514;BME280;3290;47.716;9.070;2023-03-25T02:56:37;96527.38;;;10.03;97.01
6514;BME280;3290;47.716;9.070;2023-03-25T02:59:06;96535.66;;;10.00;97.31
6514;BME280;3290;47.716;9.070;2023-03-25T03:01:34;96528.94;;;9.87;98.64
6514;BME280;3290;47.716;9.070;2023-03-25T03:04:00;96544.41;;;9.95;98.84
6514;BME280;3290;47.716;9.070;2023-03-25T03:06:26;96540.50;;;10.15;98.54
6514;BME280;3290;47.716;9.070;2023-03-25T03:09:08;96540.31;;;9.98;100.00
6514;BME280;3290;47.716;9.070;2023-03-25T03:11:45;96544.22;;;10.07;98.94
6514;BME280;3290;47.716;9.070;2023-03-25T03:14:23;96545.47;;;10.23;97.30
6514;BME280;3290;47.716;9.070;2023-03-25T03:16:59;96550.66;;;10.11;98.30
6514;BME280;3290;47.716;9.070;2023-03-25T03:22:36;96555.78;;;10.18;97.22
6514;BME280;3290;47.716;9.070;2023-03-25T03:25:18;96566.28;;;10.00;98.43
6514;BME280;3290;47.716;9.070;2023-03-25T03:30:36;96608.75;;;9.78;100.00
6514;BME280;3290;47.716;9.070;2023-03-25T03:33:10;96655.44;;;8.71;100.00
6514;BME280;3290;47.716;9.070;2023-03-25T03:35:47;96655.06;;;8.24;100.00
6514;BME280;3290;47.716;9.070;2023-03-25T03:38:18;96605.81;;;8.40;100.00
6514;BME280;3290;47.716;9.070;2023-03-25T03:40:49;96629.28;;;8.40;100.00
6514;BME280;3290;47.716;9.070;2023-03-25T03:43:24;96639.84;;;8.58;100.00
6514;BME280;3290;47.716;9.070;2023-03-25T03:45:56;96652.91;;;8.58;100.00
6514;BME280;3290;47.716;9.070;2023-03-25T03:48:26;96657.75;;;8.48;100.00
6514;BME280;3290;47.716;9.070;2023-03-25T03:50:55;96665.72;;;8.66;100.00
6514;BME280;3290;47.716;9.070;2023-03-25T03:53:42;96665.66;;;8.79;100.00
6514;BME280;3290;47.716;9.070;2023-03-25T03:56:28;96677.28;;;8.77;100.00
6514;BME280;3290;47.716;9.070;2023-03-25T03:59:03;96683.81;;;8.61;100.00
6514;BME280;3290;47.716;9.070;2023-03-25T04:01:45;96668.47;;;8.77;100.00
6514;BME280;3290;47.716;9.070;2023-03-25T04:04:15;96680.19;;;8.62;100.00
6514;BME280;3290;47.716;9.070;2023-03-25T04:06:50;96672.22;;;8.51;100.00
6514;BME280;3290;47.716;9.070;2023-03-25T04:09:58;96660.94;;;8.57;100.00
6514;BME280;3290;47.716;9.070;2023-03-25T04:12:30;96682.69;;;8.38;100.00
6514;BME280;3290;47.716;9.070;2023-03-25T04:14:59;96670.28;;;8.34;100.00
6514;BME280;3290;47.716;9.070;2023-03-25T04:17:25;96671.13;;;8.21;100.00
6514;BME280;3290;47.716;9.070;2023-03-25T04:19:57;96663.69;;;8.25;100.00
6514;BME280;3290;47.716;9.070;2023-03-25T04:22:22;96669.47;;;8.33;100.00
6514;BME280;3290;47.716;9.070;2023-03-25T04:24:49;96672.09;;;8.27;100.00
6514;BME280;3290;47.716;9.070;2023-03-25T04:27:17;96653.06;;;8.13;100.00
6514;BME280;3290;47.716;9.070;2023-03-25T04:29:43;96647.25;;;8.18;100.00
6514;BME280;3290;47.716;9.070;2023-03-25T04:32:12;96658.69;;;8.17;100.00
6514;BME280;3290;47.716;9.070;2023-03-25T04:34:38;96683.41;;;8.01;100.00
6514;BME280;3290;47.716;9.070;2023-03-25T04:37:03;96678.75;;;8.10;100.00
6514;BME280;3290;47.716;9.070;2023-03-25T04:39:29;96665.50;;;8.18;100.00
6514;BME280;3290;47.716;9.070;2023-03-25T04:41:57;96675.31;;;8.22;100.00
6514;BME280;3290;47.716;9.070;2023-03-25T04:44:26;96679.16;;;8.20;100.00
6514;BME280;3290;47.716;9.070;2023-03-25T04:46:53;96677.31;;;8.27;100.00
6514;BME280;3290;47.716;9.070;2023-03-25T04:49:21;96672.91;;;8.27;100.00
6514;BME280;3290;47.716;9.070;2023-03-25T04:51:53;96674.91;;;8.25;100.00
6514;BME280;3290;47.716;9.070;2023-03-25T04:54:20;96671.91;;;8.22;100.00
6514;BME280;3290;47.716;9.070;2023-03-25T04:56:46;96671.69;;;8.30;100.00
6514;BME280;3290;47.716;9.070;2023-03-25T04:59:13;96672.31;;;8.19;100.00
6514;BME280;3290;47.716;9.070;2023-03-25T05:01:40;96670.50;;;8.26;100.00
6514;BME280;3290;47.716;9.070;2023-03-25T05:04:07;96674.31;;;8.30;100.00
6514;BME280;3290;47.716;9.070;2023-03-25T05:06:39;96676.66;;;8.44;100.00
6514;BME280;3290;47.716;9.070;2023-03-25T05:09:07;96666.69;;;8.22;100.00
6514;BME280;3290;47.716;9.070;2023-03-25T05:11:34;96662.19;;;8.41;100.00
6514;BME280;3290;47.716;9.070;2023-03-25T05:14:01;96667.28;;;8.24;100.00
6514;BME280;3290;47.716;9.070;2023-03-25T05:16:28;96668.94;;;7.99;100.00
6514;BME280;3290;47.716;9.070;2023-03-25T05:18:53;96671.94;;;8.09;100.00
6514;BME280;3290;47.716;9.070;2023-03-25T05:21:18;96684.19;;;8.02;100.00
6514;BME280;3290;47.716;9.070;2023-03-25T05:23:44;96692.00;;;8.28;100.00
6514;BME280;3290;47.716;9.070;2023-03-25T05:26:10;96687.97;;;8.19;100.00
6514;BME280;3290;47.716;9.070;2023-03-25T05:28:39;96693.81;;;8.21;100.00
6514;BME280;3290;47.716;9.070;2023-03-25T05:31:05;96700.81;;;8.07;100.00
6514;BME280;3290;47.716;9.070;2023-03-25T05:33:37;96699.66;;;7.91;100.00
6514;BME280;3290;47.716;9.070;2023-03-25T05:36:11;96699.06;;;7.76;100.00
6514;BME280;3290;47.716;9.070;2023-03-25T05:38:38;96695.88;;;7.74;100.00
6514;BME280;3290;47.716;9.070;2023-03-25T05:41:16;96695.63;;;8.14;100.00
6514;BME280;3290;47.716;9.070;2023-03-25T05:43:43;96677.75;;;8.17;100.00
6514;BME280;3290;47.716;9.070;2023-03-25T05:46:15;96669.31;;;8.09;100.00
6514;BME280;3290;47.716;9.070;2023-03-25T05:48:41;96687.97;;;8.25;100.00
6514;BME280;3290;47.716;9.070;2023-03-25T05:51:11;96690.44;;;7.88;100.00
6514;BME280;3290;47.716;9.070;2023-03-25T05:53:44;96693.63;;;7.90;100.00
6514;BME280;3290;47.716;9.070;2023-03-25T05:56:14;96697.06;;;7.84;100.00
6514;BME280;3290;47.716;9.070;2023-03-25T05:58:45;96700.63;;;7.96;100.00
6514;BME280;3290;47.716;9.070;2023-03-25T06:01:11;96698.66;;;7.85;100.00
6514;BME280;3290;47.716;9.070;2023-03-25T06:03:38;96697.47;;;7.88;100.00
6514;BME280;3290;47.716;9.070;2023-03-25T06:06:04;96696.44;;;8.14;100.00
6514;BME280;3290;47.716;9.070;2023-03-25T06:08:38;96702.06;;;8.05;100.00
6514;BME280;3290;47.716;9.070;2023-03-25T06:11:04;96721.31;;;8.04;100.00
6514;BME280;3290;47.716;9.070;2023-03-25T06:13:29;96725.31;;;8.13;100.00
6514;BME280;3290;47.716;9.070;2023-03-25T06:15:58;96718.91;;;8.02;100.00
6514;BME280;3290;47.716;9.070;2023-03-25T06:18:24;96717.38;;;8.51;100.00
6514;BME280;3290;47.716;9.070;2023-03-25T06:20:51;96720.72;;;8.71;100.00
6514;BME280;3290;47.716;9.070;2023-03-25T06:23:19;96725.66;;;8.42;100.00
6514;BME280;3290;47.716;9.070;2023-03-25T06:25:48;96718.03;;;8.40;100.00
6514;BME280;3290;47.716;9.070;2023-03-25T06:28:13;96724.75;;;8.67;100.00
6514;BME280;3290;47.716;9.070;2023-03-25T06:30:42;96716.91;;;9.11;100.00
6514;BME280;3290;47.716;9.070;2023-03-25T06:33:08;96715.00;;;8.87;100.00
6514;BME280;3290;47.716;9.070;2023-03-25T06:35:35;96714.13;;;9.06;100.00
6514;BME280;3290;47.716;9.070;2023-03-25T06:38:00;96705.16;;;9.26;100.00
6514;BME280;3290;47.716;9.070;2023-03-25T06:40:26;96704.97;;;9.76;100.00
6514;BME280;3290;47.716;9.070;2023-03-25T06:42:51;96717.56;;;9.85;100.00
6514;BME280;3290;47.716;9.070;2023-03-25T06:45:16;96710.91;;;9.65;100.00
6514;BME280;3290;47.716;9.070;2023-03-25T06:47:42;96707.06;;;9.43;100.00
6514;BME280;3290;47.716;9.070;2023-03-25T06:50:08;96701.41;;;9.16;100.00
6514;BME280;3290;47.716;9.070;2023-03-25T06:52:33;96696.47;;;9.56;100.00
6514;BME280;3290;47.716;9.070;2023-03-25T06:54:59;96708.44;;;9.70;99.86
6514;BME280;3290;47.716;9.070;2023-03-25T06:57:24;96699.56;;;9.71;99.21
6514;BME280;3290;47.716;9.070;2023-03-25T06:59:49;96703.97;;;9.77;100.00
6514;BME280;3290;47.716;9.070;2023-03-25T07:02:15;96690.81;;;10.25;97.25
6514;BME280;3290;47.716;9.070;2023-03-25T07:04:40;96690.97;;;10.66;96.54
6514;BME280;3290;47.716;9.070;2023-03-25T07:07:07;96702.47;;;10.47;96.23
6514;BME280;3290;47.716;9.070;2023-03-25T07:09:33;96702.59;;;10.34;96.94
6514;BME280;3290;47.716;9.070;2023-03-25T07:11:59;96711.63;;;10.20;97.41
6514;BME280;3290;47.716;9.070;2023-03-25T07:14:24;96710.91;;;10.13;96.47
6514;BME280;3290;47.716;9.070;2023-03-25T07:16:49;96710.69;;;9.91;98.50
6514;BME280;3290;47.716;9.070;2023-03-25T07:19:15;96714.88;;;9.98;98.86
6514;BME280;3290;47.716;9.070;2023-03-25T07:21:40;96714.66;;;9.99;97.79
6514;BME280;3290;47.716;9.070;2023-03-25T07:24:06;96711.22;;;9.75;99.56
6514;BME280;3290;47.716;9.070;2023-03-25T07:26:31;96710.91;;;10.13;97.15
6514;BME280;3290;47.716;9.070;2023-03-25T07:28:57;96711.78;;;10.43;96.63
6514;BME280;3290;47.716;9.070;2023-03-25T07:31:22;96701.84;;;10.80;94.74
6514;BME280;3290;47.716;9.070;2023-03-25T07:33:48;96704.34;;;10.58;94.56
6514;BME280;3290;47.716;9.070;2023-03-25T07:36:13;96701.66;;;10.64;95.66
6514;BME280;3290;47.716;9.070;2023-03-25T07:38:39;96695.53;;;10.70;95.19
6514;BME280;3290;47.716;9.070;2023-03-25T07:41:10;96702.38;;;10.53;95.17
6514;BME280;3290;47.716;9.070;2023-03-25T07:43:36;96701.44;;;10.66;94.92
6514;BME280;3290;47.716;9.070;2023-03-25T07:46:02;96700.44;;;10.49;95.60
6514;BME280;3290;47.716;9.070;2023-03-25T07:48:28;96700.50;;;10.78;94.42
6514;BME280;3290;47.716;9.070;2023-03-25T07:50:53;96706.81;;;10.53;95.52
6514;BME280;3290;47.716;9.070;2023-03-25T07:53:19;96698.59;;;10.49;94.57
6514;BME280;3290;47.716;9.070;2023-03-25T07:55:45;96706.25;;;10.33;95.13
6514;BME280;3290;47.716;9.070;2023-03-25T07:58:11;96708.13;;;10.62;96.33
6514;BME280;3290;47.716;9.070;2023-03-25T08:00:37;96703.03;;;10.67;95.42
6514;BME280;3290;47.716;9.070;2023-03-25T08:03:03;96699.69;;;10.42;95.10
6514;BME280;3290;47.716;9.070;2023-03-25T08:05:29;96707.97;;;10.57;95.87
6514;BME280;3290;47.716;9.070;2023-03-25T08:07:54;96694.81;;;10.45;95.74
6514;BME280;3290;47.716;9.070;2023-03-25T08:10:20;96693.47;;;10.43;95.97
6514;BME280;3290;47.716;9.070;2023-03-25T08:12:45;96695.78;;;10.33;96.28
6514;BME280;3290;47.716;9.070;2023-03-25T08:15:12;96692.72;;;10.36;95.59
6514;BME280;3290;47.716;9.070;2023-03-25T08:17:38;96701.00;;;10.33;97.53
6514;BME280;3290;47.716;9.070;2023-03-25T08:20:05;96693.50;;;10.54;97.64
6514;BME280;3290;47.716;9.070;2023-03-25T08:22:32;96690.03;;;10.42;96.99
6514;BME280;3290;47.716;9.070;2023-03-25T08:24:57;96686.59;;;10.06;97.49
6514;BME280;3290;47.716;9.070;2023-03-25T08:27:23;96697.72;;;10.20;99.19
6514;BME280;3290;47.716;9.070;2023-03-25T08:29:48;96698.25;;;10.28;98.06
6514;BME280;3290;47.716;9.070;2023-03-25T08:32:24;96686.69;;;10.82;98.26
6514;BME280;3290;47.716;9.070;2023-03-25T08:34:51;96688.47;;;10.71;93.27
6514;BME280;3290;47.716;9.070;2023-03-25T08:37:16;96689.72;;;10.68;92.46
6514;BME280;3290;47.716;9.070;2023-03-25T08:39:42;96690.84;;;10.43;92.71
6514;BME280;3290;47.716;9.070;2023-03-25T08:42:11;96707.16;;;10.03;93.61
6514;BME280;3290;47.716;9.070;2023-03-25T08:44:37;96709.72;;;10.09;94.72
6514;BME280;3290;47.716;9.070;2023-03-25T08:47:03;96711.28;;;9.93;97.49
6514;BME280;3290;47.716;9.070;2023-03-25T08:49:29;96722.19;;;9.83;99.84
6514;BME280;3290;47.716;9.070;2023-03-25T08:51:55;96722.81;;;9.61;100.00
6514;BME280;3290;47.716;9.070;2023-03-25T08:54:23;96724.97;;;9.64;100.00
6514;BME280;3290;47.716;9.070;2023-03-25T08:56:48;96713.69;;;9.39;100.00
6514;BME280;3290;47.716;9.070;2023-03-25T08:59:14;96726.88;;;9.26;100.00
6514;BME280;3290;47.716;9.070;2023-03-25T09:01:39;96724.25;;;9.26;100.00
6514;BME280;3290;47.716;9.070;2023-03-25T09:04:06;96725.03;;;9.57;100.00
6514;BME280;3290;47.716;9.070;2023-03-25T09:06:31;96729.91;;;9.54;100.00
6514;BME280;3290;47.716;9.070;2023-03-25T09:08:57;96723.81;;;9.60;100.00
6514;BME280;3290;47.716;9.070;2023-03-25T09:11:22;96721.47;;;9.52;100.00
6514;BME280;3290;47.716;9.070;2023-03-25T09:13:48;96734.25;;;9.60;100.00
6514;BME280;3290;47.716;9.070;2023-03-25T09:16:13;96737.91;;;9.59;100.00
6514;BME280;3290;47.716;9.070;2023-03-25T09:18:38;96734.53;;;9.76;100.00
6514;BME280;3290;47.716;9.070;2023-03-25T09:21:04;96726.16;;;9.68;100.00
6514;BME280;3290;47.716;9.070;2023-03-25T09:23:30;96727.34;;;9.41;100.00
6514;BME280;3290;47.716;9.070;2023-03-25T09:25:59;96729.38;;;9.70;100.00
6514;BME280;3290;47.716;9.070;2023-03-25T09:28:25;96723.69;;;9.73;100.00
6514;BME280;3290;47.716;9.070;2023-03-25T09:30:50;96726.00;;;9.63;100.00
6514;BME280;3290;47.716;9.070;2023-03-25T09:33:16;96729.25;;;9.83;100.00
6514;BME280;3290;47.716;9.070;2023-03-25T09:35:43;96721.41;;;9.58;100.00
6514;BME280;3290;47.716;9.070;2023-03-25T09:38:08;96718.47;;;9.73;100.00
6514;BME280;3290;47.716;9.070;2023-03-25T09:40:34;96718.13;;;9.94;100.00
6514;BME280;3290;47.716;9.070;2023-03-25T09:45:41;96713.41;;;10.02;100.00
6514;BME280;3290;47.716;9.070;2023-03-25T09:48:38;96702.34;;;9.76;100.00
6514;BME280;3290;47.716;9.070;2023-03-25T09:51:25;96715.91;;;9.66;100.00
6514;BME280;3290;47.716;9.070;2023-03-25T09:53:54;96717.56;;;9.85;100.00
6514;BME280;3290;47.716;9.070;2023-03-25T09:56:25;96716.72;;;9.67;100.00
6514;BME280;3290;47.716;9.070;2023-03-25T09:59:04;96720.50;;;9.71;100.00
6514;BME280;3290;47.716;9.070;2023-03-25T10:15:38;96701.97;;;9.72;100.00
6514;BME280;3290;47.716;9.070;2023-03-25T10:21:11;96703.34;;;9.99;100.00
6514;BME280;3290;47.716;9.070;2023-03-25T10:26:30;96715.75;;;9.61;100.00
6514;BME280;3290;47.716;9.070;2023-03-25T10:29:05;96720.22;;;9.55;100.00
6514;BME280;3290;47.716;9.070;2023-03-25T10:31:34;96720.94;;;9.68;100.00
6514;BME280;3290;47.716;9.070;2023-03-25T10:34:05;96718.56;;;9.60;100.00
6514;BME280;3290;47.716;9.070;2023-03-25T10:36:43;96713.38;;;9.54;100.00
6514;BME280;3290;47.716;9.070;2023-03-25T10:39:18;96719.50;;;9.41;100.00
6514;BME280;3290;47.716;9.070;2023-03-25T10:41:48;96724.75;;;9.41;100.00
6514;BME280;3290;47.716;9.070;2023-03-25T10:44:16;96717.53;;;9.37;100.00
6514;BME280;3290;47.716;9.070;2023-03-25T10:46:50;96727.06;;;9.25;100.00
6514;BME280;3290;47.716;9.070;2023-03-25T10:49:25;96734.28;;;9.29;100.00
6514;BME280;3290;47.716;9.070;2023-03-25T10:51:52;96733.06;;;9.32;100.00
6514;BME280;3290;47.716;9.070;2023-03-25T10:54:20;96737.31;;;9.26;100.00
6514;BME280;3290;47.716;9.070;2023-03-25T10:56:49;96742.53;;;9.26;100.00
6514;BME280;3290;47.716;9.070;2023-03-25T10:59:25;96736.53;;;9.26;100.00
6514;BME280;3290;47.716;9.070;2023-03-25T11:01:57;96738.59;;;9.18;100.00
6514;BME280;3290;47.716;9.070;2023-03-25T11:04:30;96750.78;;;8.93;100.00
6514;BME280;3290;47.716;9.070;2023-03-25T11:06:58;96753.97;;;9.01;100.00
6514;BME280;3290;47.716;9.070;2023-03-25T11:09:28;96746.31;;;9.00;100.00
6514;BME280;3290;47.716;9.070;2023-03-25T11:12:03;96740.25;;;9.67;100.00
6514;BME280;3290;47.716;9.070;2023-03-25T11:14:29;96729.03;;;10.50;100.00
6514;BME280;3290;47.716;9.070;2023-03-25T11:16:55;96730.13;;;9.77;100.00
6514;BME280;3290;47.716;9.070;2023-03-25T11:22:30;96745.59;;;10.02;100.00
6514;BME280;3290;47.716;9.070;2023-03-25T11:25:02;96743.00;;;9.78;100.00
6514;BME280;3290;47.716;9.070;2023-03-25T11:27:29;96751.63;;;10.27;100.00
6514;BME280;3290;47.716;9.070;2023-03-25T11:30:05;96747.56;;;10.84;100.00
6514;BME280;3290;47.716;9.070;2023-03-25T11:32:39;96749.78;;;10.52;100.00
6514;BME280;3290;47.716;9.070;2023-03-25T11:35:21;96742.91;;;10.33;100.00
6514;BME280;3290;47.716;9.070;2023-03-25T11:37:53;96743.94;;;10.85;100.00
6514;BME280;3290;47.716;9.070;2023-03-25T11:40:20;96736.31;;;10.95;100.00
6514;BME280;3290;47.716;9.070;2023-03-25T11:42:51;96738.19;;;10.77;100.00
6514;BME280;3290;47.716;9.070;2023-03-25T11:45:23;96739.13;;;10.82;100.00
6514;BME280;3290;47.716;9.070;2023-03-25T11:47:50;96736.91;;;11.26;100.00
6514;BME280;3290;47.716;9.070;2023-03-25T11:50:24;96745.28;;;10.88;99.93
6514;BME280;3290;47.716;9.070;2023-03-25T11:52:56;96729.28;;;11.25;100.00
6514;BME280;3290;47.716;9.070;2023-03-25T11:55:28;96733.94;;;11.23;100.00
6514;BME280;3290;47.716;9.070;2023-03-25T11:57:57;96720.56;;;11.94;97.26
6514;BME280;3290;47.716;9.070;2023-03-25T12:00:40;96716.00;;;12.46;94.16
6514;BME280;3290;47.716;9.070;2023-03-25T12:03:17;96708.22;;;13.29;89.13
6514;BME280;3290;47.716;9.070;2023-03-25T12:05:56;96704.19;;;13.11;92.72
6514;BME280;3290;47.716;9.070;2023-03-25T12:08:22;96707.84;;;13.10;89.04
6514;BME280;3290;47.716;9.070;2023-03-25T12:10:54;96699.97;;;12.59;90.93
6514;BME280;3290;47.716;9.070;2023-03-25T12:13:37;96705.13;;;12.43;90.72
6514;BME280;3290;47.716;9.070;2023-03-25T12:17:22;96690.00;;;13.12;87.57
6514;BME280;3290;47.716;9.070;2023-03-25T12:25:16;96684.06;;;13.05;85.05
6514;BME280;3290;47.716;9.070;2023-03-25T12:38:48;96649.72;;;14.84;79.12
6514;BME280;3290;47.716;9.070;2023-03-25T12:41:35;96657.94;;;14.07;76.45
6514;BME280;3290;47.716;9.070;2023-03-25T12:47:13;96646.94;;;14.74;73.71
6514;BME280;3290;47.716;9.070;2023-03-25T12:50:19;96643.69;;;14.88;73.29
6514;BME280;3290;47.716;9.070;2023-03-25T13:07:10;96635.59;;;14.31;75.20
6514;BME280;3290;47.716;9.070;2023-03-25T13:09:59;96632.66;;;13.74;76.10
6514;BME280;3290;47.716;9.070;2023-03-25T13:12:35;96624.41;;;13.54;78.30
6514;BME280;3290;47.716;9.070;2023-03-25T13:15:21;96626.41;;;13.80;78.75
6514;BME280;3290;47.716;9.070;2023-03-25T13:18:11;96622.66;;;13.27;80.04
6514;BME280;3290;47.716;9.070;2023-03-25T13:20:46;96623.38;;;13.22;80.29
6514;BME280;3290;47.716;9.070;2023-03-25T13:23:17;96609.66;;;13.04;80.51
6514;BME280;3290;47.716;9.070;2023-03-25T13:26:05;96612.97;;;13.00;80.89
6514;BME280;3290;47.716;9.070;2023-03-25T13:28:56;96601.47;;;12.89;80.59
6514;BME280;3290;47.716;9.070;2023-03-25T13:31:30;96604.94;;;12.78;79.96
6514;BME280;3290;47.716;9.070;2023-03-25T13:36:33;96616.66;;;12.99;81.02
6514;BME280;3290;47.716;9.070;2023-03-25T13:39:14;96619.28;;;12.99;81.37
6514;BME280;3290;47.716;9.070;2023-03-25T13:41:51;96609.09;;;13.02;82.11
6514;BME280;3290;47.716;9.070;2023-03-25T13:44:26;96616.94;;;13.30;81.05
6514;BME280;3290;47.716;9.070;2023-03-25T13:52:16;96609.59;;;13.32;77.37
6514;BME280;3290;47.716;9.070;2023-03-25T13:54:49;96606.19;;;13.48;77.11
6514;BME280;3290;47.716;9.070;2023-03-25T14:11:12;96617.41;;;12.83;78.89
6514;BME280;3290;47.716;9.070;2023-03-25T14:13:43;96607.72;;;13.00;78.63
6514;BME280;3290;47.716;9.070;2023-03-25T14:16:15;96610.78;;;13.24;78.49
6514;BME280;3290;47.716;9.070;2023-03-25T14:18:45;96613.25;;;13.15;79.09
6514;BME280;3290;47.716;9.070;2023-03-25T14:26:36;96618.84;;;13.18;77.32
6514;BME280;3290;47.716;9.070;2023-03-25T14:29:16;96620.19;;;13.20;73.05
6514;BME280;3290;47.716;9.070;2023-03-25T14:32:06;96617.31;;;13.22;72.80
6514;BME280;3290;47.716;9.070;2023-03-25T14:34:49;96626.09;;;13.27;71.96
6514;BME280;3290;47.716;9.070;2023-03-25T14:37:16;96614.44;;;13.07;72.75
6514;BME280;3290;47.716;9.070;2023-03-25T14:39:42;96616.25;;;13.07;70.13
6514;BME280;3290;47.716;9.070;2023-03-25T14:42:24;96627.16;;;12.99;71.35
6514;BME280;3290;47.716;9.070;2023-03-25T14:44:53;96626.31;;;12.82;77.33
6514;BME280;3290;47.716;9.070;2023-03-25T14:47:59;96635.09;;;12.48;76.61
6514;BME280;3290;47.716;9.070;2023-03-25T14:50:29;96622.78;;;12.38;76.88
6514;BME280;3290;47.716;9.070;2023-03-25T14:53:13;96629.94;;;12.53;79.05
6514;BME280;3290;47.716;9.070;2023-03-25T14:55:46;96638.44;;;12.33;83.54
6514;BME280;3290;47.716;9.070;2023-03-25T14:58:25;96645.53;;;12.21;86.22
6514;BME280;3290;47.716;9.070;2023-03-25T15:00:54;96638.44;;;12.33;86.10
6514;BME280;3290;47.716;9.070;2023-03-25T15:03:21;96647.16;;;12.22;82.73
6514;BME280;3290;47.716;9.070;2023-03-25T15:05:54;96650.59;;;12.11;84.63
6514;BME280;3290;47.716;9.070;2023-03-25T15:08:51;96646.25;;;12.16;86.30
6514;BME280;3290;47.716;9.070;2023-03-25T15:11:34;96645.00;;;12.58;83.52
6514;BME280;3290;47.716;9.070;2023-03-25T15:14:05;96652.03;;;12.30;81.95
6514;BME280;3290;47.716;9.070;2023-03-25T15:16:57;96654.16;;;12.55;82.37
6514;BME280;3290;47.716;9.070;2023-03-25T15:19:29;96651.53;;;12.94;82.67
6514;BME280;3290;47.716;9.070;2023-03-25T15:22:20;96658.84;;;13.20;75.85
6514;BME280;3290;47.716;9.070;2023-03-25T15:24:49;96656.25;;;13.09;74.84
6514;BME280;3290;47.716;9.070;2023-03-25T15:44:48;96636.31;;;14.05;73.15
6514;BME280;3290;47.716;9.070;2023-03-25T15:47:40;96633.44;;;13.25;74.89
6514;BME280;3290;47.716;9.070;2023-03-25T15:50:53;96631.91;;;13.13;75.83
6514;BME280;3290;47.716;9.070;2023-03-25T15:56:36;96643.22;;;12.86;79.29
6514;BME280;3290;47.716;9.070;2023-03-25T16:01:54;96645.03;;;12.46;80.39